Flight Track Log - Related Links

Times and Time Zones

All times are in EDT time to prevent confusion due to time zone crossing. See the AWE1761 flight status page for this flight to view local times or setup timezone preferences in your user account.

Time Position Orientation Groundspeed Altitude Reporting Facility
EDT Latitude Longitude Course Direction KTS MPH feet Rate Location/Type
Sat 12:42:00 PM 18.7741 -65.1435 337° Northwest  Level Estimated
Sat 12:42:17 PM 18.2651 -65.0988 301° West 303 349 7,800  Level FlightAware ADS-B (TNCM / SXM)
Sat 12:42:24 PM 18.2720 -65.1086 312° West 307 353 8,100 2,143 Climbing FlightAware ADS-B (TNCM / SXM)
Sat 12:42:31 PM 18.2751 -65.1118 321° Northwest 309 356 8,300 2,118 Climbing FlightAware ADS-B (TNCM / SXM)
Sat 12:42:41 PM 18.2907 -65.1225 333° Northwest 311 358 8,700 2,500 Climbing FlightAware ADS-B (TNCM / SXM)
Sat 12:42:55 PM 18.3103 -65.1326 335° Northwest 313 360 9,300 1,648 Climbing FlightAware ADS-B (TNCM / SXM)
Sat 12:44:12 PM 18.4133 -65.1867 335° Northwest 315 362 11,200 1,488 Climbing FlightAware ADS-B (TNCM / SXM)
Sat 12:45:04 PM 18.4998 -65.2341 332° Northwest 396 456 12,500 1,842 Climbing FlightAware ADS-B (TNCM / SXM)
Sat 12:46:06 PM 18.6004 -65.2902 333° Northwest 400 460 14,700 2,000 Climbing FlightAware ADS-B (TNCM / SXM)
Sat 12:47:16 PM 18.7185 -65.3529 334° Northwest 410 472 16,900 1,794 Climbing FlightAware ADS-B (TNCM / SXM)
Sat 12:47:43 PM 18.7669 -65.3785 334° Northwest 414 476 17,600 1,732 Climbing FlightAware ADS-B (TNCM / SXM)
Sat 12:49:45 PM 18.9799 -65.4931 333° Northwest 437 503 21,200 1,560 Climbing FlightAware ADS-B (TNCM / SXM)
Sat 12:54:00 PM 19.4776 -65.7307 339° North 486 559 27,400 1,419 Climbing FlightAware ADS-B (TNCM / SXM)
Sat 12:54:58 PM 19.5996 -65.7754 341° North 488 562 28,600 1,532 Climbing FlightAware ADS-B (TNCM / SXM)
Sat 12:56:21 PM 19.7770 -65.8327 344° North 486 559 31,000 1,691 Climbing FlightAware ADS-B (TNCM / SXM)
Sat 12:56:48 PM 19.8361 -65.8512 344° North 485 558 31,700 1,935 Climbing FlightAware ADS-B (TNCM / SXM)
Sat 12:57:23 PM 19.9182 -65.8766 344° North 479 551 33,000 1,622 Climbing FlightAware ADS-B (TNCM / SXM)
Sat 12:59:16 PM 20.1438 -65.9582 337° Northwest 466 536 35,700 968 Climbing FlightAware ADS-B (TNCM / SXM)
Sat 01:00:29 PM 20.2833 -66.0167 337° Northwest 460 529 36,000 134 Climbing San Juan Center
Sat 01:01:30 PM 20.4000 -66.0667 338° Northwest 440 506 36,000 530 Level San Juan Center
Sat 01:03:30 PM 20.6167 -66.2167 327° Northwest 450 518 37,600 667 Climbing San Juan Center
Sat 01:04:30 PM 20.7167 -66.2833 328° Northwest 440 506 38,000 133 Climbing San Juan Center
Sat 01:06:31 PM 20.9333 -66.4333 317° Northwest 450 518 38,000  Level San Juan Center
Sat 01:07:31 PM 21.0500 -66.4833 338° Northwest 450 518 38,000  Level San Juan Center
Sat 01:08:32 PM 21.1500 -66.5500 328° Northwest 460 529 38,000  Level San Juan Center
Sat 01:09:32 PM 21.2667 -66.6333 326° Northwest 450 518 38,000  Level San Juan Center
Sat 01:11:33 PM 21.4500 -66.7833 325° Northwest 440 506 38,000  Level San Juan Center
Sat 01:12:33 PM 21.5667 -66.8333 338° Northwest 440 506 38,000  Level San Juan Center
Sat 01:14:34 PM 21.8000 -66.9333 338° Northwest 440 506 38,000  Level San Juan Center
Sat 01:15:35 PM 21.9167 -67.0000 332° Northwest 450 518 38,000  Level San Juan Center
Sat 01:23:03 PM 22.2333 -67.3167 349° North 455 524 38,000  Level New York Oceanic (ODAPS)
Sat 01:46:00 PM 25.4667 -68.0000 349° North 429 494 38,000  Level New York Oceanic (ODAPS)
Sat 02:08:23 PM 27.9333 -68.5333 349° North 451 519 38,000  Level New York Oceanic (ODAPS)
Sat 02:32:43 PM 30.9000 -69.2333 349° North 419 482 38,000  Level New York Oceanic (ODAPS)
Sat 02:56:31 PM 33.3000 -69.8167 348° North 410 472 38,000  Level New York Oceanic (ODAPS)
Sat 03:15:30 PM 35.7667 -70.4500 348° North 422 486 38,000  Level New York Oceanic (ODAPS)
Sat 03:26:17 PM 37.1222 -70.8186 347° North 446 513 38,000  Level New York Center
Sat 03:27:00 PM 37.2581 -70.8554 348° North 422 486 38,000  Level FlightAware Transoceanic
Sat 03:27:16 PM 37.2347 -70.8581 344° North 432 497 38,000  Level New York Center
Sat 03:28:00 PM 37.3727 -70.8872 348° North 422 486 38,000  Level FlightAware Transoceanic
Sat 03:28:15 PM 37.3411 -70.9156 337° Northwest 427 491 38,000  Level New York Center
Sat 03:29:00 PM 37.4874 -70.9192 348° North 422 486 38,000  Level FlightAware Transoceanic
Sat 03:29:16 PM 37.4056 -71.0361 304° West 406 467 38,000  Level New York Center
Sat 03:30:00 PM 37.6020 -70.9512 347° North 422 486 38,000  Level FlightAware Transoceanic
Sat 03:30:17 PM 37.4614 -71.1644 299° West 412 474 38,000  Level New York Center
Sat 03:31:16 PM 37.5256 -71.2983 301° West 412 474 38,000  Level New York Center
Sat 03:32:17 PM 37.5769 -71.4403 295° West 417 480 38,000  Level New York Center
Sat 03:33:17 PM 37.6386 -71.5564 304° West 418 481 38,000  Level New York Center
Sat 03:34:15 PM 37.6942 -71.6856 299° West 413 475 38,000  Level New York Center
Sat 03:35:15 PM 37.7514 -71.8125 300° West 413 475 38,000  Level New York Center
Sat 03:36:17 PM 37.8044 -71.9394 298° West 413 475 38,000  Level New York Center
Sat 03:37:17 PM 37.8614 -72.0586 301° West 413 475 38,000  Level New York Center
Sat 03:38:15 PM 37.9164 -72.1886 298° West 413 475 38,000  Level New York Center
Sat 03:39:16 PM 37.9731 -72.3161 299° West 413 475 38,000  Level New York Center
Sat 03:40:17 PM 38.0275 -72.4467 298° West 418 481 38,000  Level New York Center
Sat 03:41:15 PM 38.0839 -72.5772 299° West 407 468 38,000 -200 Level New York Center
Sat 03:42:17 PM 38.1358 -72.7158 296° West 412 474 37,600 -1,672 Descending New York Center
Sat 03:43:17 PM 38.1964 -72.8442 301° West 426 490 34,600 -2,250 Descending New York Center
Sat 03:44:17 PM 38.2522 -72.9756 298° West 426 490 33,100 -2,441 Descending New York Center
Sat 03:45:15 PM 38.3081 -73.1069 298° West 426 490 29,800 -2,816 Descending New York Center
Sat 03:47:16 PM 38.4194 -73.3650 299° West 420 483 24,700 -2,440 Descending New York Center
Sat 03:48:17 PM 38.4708 -73.4889 298° West 409 471 22,400 -2,338 Descending New York Center
Sat 03:49:50 PM 38.5469 -73.6681 299° West 384 442 18,700 -2,293 Descending Washington Center
Sat 03:50:54 PM 38.5942 -73.7819 298° West 368 423 16,400 -1,355 Descending Washington Center
Sat 03:51:54 PM 38.6472 -73.8931 301° West 365 420 15,900 -244 Descending Washington Center
Sat 03:52:57 PM 38.7011 -73.9997 303° West 360 414 15,900  Level Washington Center
Sat 03:54:01 PM 38.7567 -74.1069 304° West 361 415 15,900 -804 Level Washington Center
Sat 04:00:25 PM 39.2495 -74.6719 319° Northwest 354 407 9,900 -831 Descending FlightAware ADS-B (KPHL)
Sat 04:01:14 PM 39.3079 -74.7378 320° Northwest 305 351 9,900 -344 Level FlightAware ADS-B (KPHL)
Sat 04:02:27 PM 39.3815 -74.8195 319° Northwest 279 321 9,200 -448 Descending FlightAware ADS-B (KPHL)
Sat 04:03:28 PM 39.4423 -74.8881 319° Northwest 282 325 8,900 -295 Descending FlightAware ADS-B (KPHL)
Sat 04:04:29 PM 39.5022 -74.9515 320° Northwest 279 321 8,600 -850 Descending FlightAware ADS-B (KPHL)
Sat 04:05:28 PM 39.5286 -75.0423 276° West 281 323 7,200 -1,373 Descending FlightAware ADS-B (KPHL)
Sat 04:06:27 PM 39.5437 -75.1360 298° West 280 322 5,900 -655 Descending FlightAware ADS-B (KPHL)
Sat 04:07:27 PM 39.5781 -75.2166 299° West 269 310 5,900 -246 Level FlightAware ADS-B (KPHL)
Sat 04:08:29 PM 39.6160 -75.3055 299° West 236 272 5,400 -787 Descending FlightAware ADS-B (KPHL)
Sat 04:09:29 PM 39.6527 -75.3704 310° West 234 269 4,300 -1,119 Descending FlightAware ADS-B (KPHL)
Sat 04:10:27 PM 39.6780 -75.4100 334° Northwest 230 265 3,200 -814 Descending FlightAware ADS-B (KPHL)
Sat 04:11:27 PM 39.7408 -75.4577 336° Northwest 193 222 2,700 -694 Descending FlightAware ADS-B (KPHL)
Sat 04:12:28 PM 39.7938 -75.4686 54° Northeast 165 190 1,800 -504 Descending FlightAware ADS-B (KPHL)
Sat 04:13:26 PM 39.8189 -75.4146 75° East 159 183 1,700 -347 Descending FlightAware ADS-B (KPHL)
Sat 04:14:29 PM 39.8292 -75.3615 75° East 121 139 1,100 -590 Descending FlightAware ADS-B (KPHL)
Sat 04:15:28 PM 39.8376 -75.3202 76° East 122 140 500 -610 Descending FlightAware ADS-B (KPHL)
Sat 04:16:25 PM 39.8457 -75.2802 76° East 124 143 -526 Descending FlightAware ADS-B (KPHL)

Login

Don't have an account? Register now (free) for customized features, flight alerts, and more!